Time;durP1;ratioP1;P1;durP2;ratioP2;P2;SDS_P1;SDS_P2;PMS_P1;PMS_P2;Temp;Humidity;BMP_temperature;BMP_pressure;BME280_temperature;BME280_humidity;BME280_pressure;Samples;Min_cycle;Max_cycle;Signal;HPM_P1;HPM_P2
2021/09/26 00:03:47;;;;;;;34.95;22.23;;;;;;;18.23;64.86;101324.63;10468350;28;20060;-77
2021/09/26 00:08:47;;;;;;;29.50;21.42;;;;;;;18.62;65.01;101371.59;10467657;28;20077;-78
2021/09/26 00:13:48;;;;;;;26.73;20.73;;;;;;;18.57;64.45;101369.56;10502093;28;20128;-78
2021/09/26 00:18:49;;;;;;;32.13;22.45;;;;;;;18.37;65.04;101326.03;10482501;28;20471;-77
2021/09/26 00:23:49;;;;;;;33.72;21.33;;;;;;;18.15;65.10;101283.84;10503834;28;20028;-77
2021/09/26 00:28:50;;;;;;;30.70;20.83;;;;;;;18.50;64.64;101357.88;10467317;28;20047;-78
2021/09/26 00:33:50;;;;;;;28.05;21.17;;;;;;;17.46;65.04;101184.94;10501272;28;20407;-77
2021/09/26 00:38:51;;;;;;;34.13;22.63;;;;;;;18.71;64.99;101376.47;10501572;28;20044;-78
2021/09/26 00:43:51;;;;;;;33.15;23.40;;;;;;;18.67;64.32;101358.84;10500148;28;20123;-77
2021/09/26 00:48:51;;;;;;;32.85;22.25;;;;;;;18.77;64.49;101370.06;10499629;28;20098;-78
2021/09/26 00:53:52;;;;;;;32.90;21.33;;;;;;;18.57;63.87;101342.97;10482945;28;20104;-77
2021/09/26 00:58:52;;;;;;;30.48;22.38;;;;;;;18.78;63.75;101379.13;10482115;28;20032;-78
2021/09/26 01:03:53;;;;;;;32.60;21.25;;;;;;;18.49;64.27;101326.88;10465254;28;20465;-78
2021/09/26 01:08:59;;;;;;;28.88;20.70;;;;;;;18.63;64.28;101365.03;10482003;28;20033;-78
2021/09/26 01:14:04;;;;;;;28.35;19.88;;;;;;;16.66;64.52;101027.50;10500096;28;20028;-78
2021/09/26 01:19:35;;;;;;;24.92;21.08;;;;;;;18.71;63.20;101354.53;10499533;28;20032;-78
2021/09/26 01:25:06;;;;;;;29.13;21.17;;;;;;;18.62;63.68;101349.66;10481652;28;20024;-78
2021/09/26 01:30:19;;;;;;;36.13;22.35;;;;;;;18.55;64.04;101333.31;10499105;28;20040;-78
2021/09/26 01:35:19;;;;;;;33.47;23.02;;;;;;;18.56;64.43;101341.28;10500083;28;20028;-77
2021/09/26 01:40:23;;;;;;;29.38;20.73;;;;;;;18.63;64.30;101338.41;10480772;28;20139;-78
2021/09/26 01:45:32;;;;;;;34.38;20.65;;;;;;;18.32;63.74;101269.19;10498453;28;20028;-78
2021/09/26 01:50:33;;;;;;;29.05;20.00;;;;;;;18.43;63.73;101274.91;10481540;28;20047;-78
2021/09/26 01:55:33;;;;;;;30.13;22.20;;;;;;;17.43;63.91;101109.59;10499454;28;20040;-77
2021/09/26 02:00:34;;;;;;;28.70;22.30;;;;;;;18.35;63.85;101312.59;10479934;28;20044;-78
2021/09/26 02:05:38;;;;;;;35.05;21.35;;;;;;;18.67;63.33;101342.38;10479845;28;20048;-78
2021/09/26 02:10:40;;;;;;;39.88;23.30;;;;;;;18.06;63.84;101250.47;10480294;28;20066;-78
2021/09/26 02:15:43;;;;;;;33.88;23.10;;;;;;;18.75;63.64;101336.53;10462939;28;20037;-78
2021/09/26 02:20:43;;;;;;;28.42;20.77;;;;;;;17.90;63.95;101194.53;10497638;28;20064;-78
2021/09/26 02:25:44;;;;;;;33.97;19.88;;;;;;;17.51;63.24;101136.59;10459653;28;20060;-77
2021/09/26 02:30:44;;;;;;;31.92;21.25;;;;;;;18.92;63.14;101333.03;10498011;28;20488;-78
2021/09/26 02:35:44;;;;;;;32.25;20.50;;;;;;;18.94;62.74;101337.19;10480004;28;20127;-78
2021/09/26 02:40:48;;;;;;;23.98;21.40;;;;;;;18.43;63.28;101247.47;10480120;28;20080;-78
2021/09/26 02:46:04;;;;;;;28.75;21.33;;;;;;;18.91;63.36;101331.38;10462653;28;20512;-77
2021/09/26 02:51:04;;;;;;;29.17;21.13;;;;;;;18.91;63.37;101323.13;10481478;28;20062;-77
2021/09/26 02:56:05;;;;;;;25.65;19.00;;;;;;;18.99;63.29;101337.31;10469860;28;20093;-78
2021/09/26 03:01:05;;;;;;;25.55;19.65;;;;;;;19.02;63.28;101322.28;10469461;28;20052;-77
2021/09/26 03:06:06;;;;;;;27.55;21.00;;;;;;;18.92;63.49;101330.28;10487039;28;20039;-77
2021/09/26 03:11:06;;;;;;;27.27;20.20;;;;;;;17.96;63.08;101126.94;10505482;28;20472;-78
2021/09/26 03:16:07;;;;;;;28.85;20.33;;;;;;;18.61;63.19;101211.66;10487280;28;20047;-78
2021/09/26 03:21:07;;;;;;;25.45;18.25;;;;;;;19.09;63.10;101297.44;10487697;28;20020;-77
2021/09/26 03:26:08;;;;;;;24.58;18.42;;;;;;;19.20;62.98;101304.78;10505389;28;20143;-77
2021/09/26 03:31:08;;;;;;;23.88;18.30;;;;;;;18.98;63.63;101312.84;10486685;28;20113;-78
2021/09/26 03:36:09;;;;;;;28.70;20.17;;;;;;;19.12;63.45;101300.53;10504304;28;20464;-78
2021/09/26 03:41:09;;;;;;;28.05;19.63;;;;;;;18.93;63.61;101261.44;10504151;28;20049;-78
2021/09/26 03:46:10;;;;;;;25.17;19.25;;;;;;;18.84;63.39;101242.88;10504076;28;20032;-78
2021/09/26 03:51:10;;;;;;;32.50;19.85;;;;;;;18.37;63.68;101188.94;10469763;28;20085;-77
2021/09/26 03:56:10;;;;;;;26.15;19.58;;;;;;;19.18;63.63;101299.53;10503540;28;20033;-77
2021/09/26 04:01:11;;;;;;;28.40;19.98;;;;;;;19.14;63.28;101287.38;10501331;28;20484;-76
2021/09/26 04:06:11;;;;;;;22.90;16.98;;;;;;;19.18;63.30;101288.56;10482898;28;20170;-77
2021/09/26 04:11:12;;;;;;;23.67;18.65;;;;;;;19.19;63.45;101301.19;10485747;28;20387;-76
2021/09/26 04:16:12;;;;;;;27.95;20.67;;;;;;;19.17;63.75;101292.38;10502589;28;20044;-78
2021/09/26 04:21:16;;;;;;;23.60;18.92;;;;;;;18.96;63.53;101257.38;10502298;28;20115;-77
2021/09/26 04:26:17;;;;;;;28.85;21.33;;;;;;;19.07;64.25;101297.66;10468037;28;20082;-77
2021/09/26 04:31:17;;;;;;;22.85;19.02;;;;;;;18.71;63.92;101219.28;10483835;28;20056;-77
2021/09/26 04:36:18;;;;;;;34.90;21.83;;;;;;;19.17;63.82;101303.34;10501005;28;20060;-77
2021/09/26 04:41:18;;;;;;;27.98;20.60;;;;;;;19.11;63.67;101274.13;10482604;28;20570;-78
2021/09/26 04:46:18;;;;;;;21.63;17.40;;;;;;;19.30;63.91;101296.72;10500639;28;20123;-77
2021/09/26 04:51:19;;;;;;;21.48;18.23;;;;;;;17.08;63.33;100946.22;10501312;28;20472;-77
2021/09/26 04:56:19;;;;;;;26.85;19.73;;;;;;;19.38;63.62;101306.50;10500608;28;20093;-78
2021/09/26 05:01:20;;;;;;;26.67;18.60;;;;;;;19.51;63.23;101292.44;10500816;28;20041;-77
2021/09/26 05:06:20;;;;;;;25.85;18.83;;;;;;;19.40;63.28;101269.47;10500709;28;20032;-76
2021/09/26 05:11:20;;;;;;;32.30;21.73;;;;;;;19.38;63.32;101268.06;10499665;28;20590;-75
2021/09/26 05:16:21;;;;;;;26.73;19.65;;;;;;;19.13;64.71;101273.91;10497707;28;20036;-75
2021/09/26 05:21:22;;;;;;;24.40;18.80;;;;;;;19.06;64.37;101241.09;10480576;28;20028;-75
2021/09/26 05:26:22;;;;;;;24.50;20.23;;;;;;;19.37;64.24;101269.97;10480641;28;20058;-74
2021/09/26 05:31:22;;;;;;;29.48;20.45;;;;;;;19.29;64.34;101278.59;10464245;28;20076;-75
2021/09/26 05:36:23;;;;;;;33.72;23.73;;;;;;;18.73;64.94;101208.91;10498094;28;20036;-74
2021/09/26 05:41:23;;;;;;;30.38;22.73;;;;;;;19.03;66.07;101293.75;10481838;28;20075;-74
2021/09/26 05:46:24;;;;;;;36.65;22.67;;;;;;;19.20;65.37;101302.03;10497872;28;20040;-75
2021/09/26 05:51:24;;;;;;;33.38;22.17;;;;;;;18.94;65.73;101279.56;10479567;28;20097;-75
2021/09/26 05:56:24;;;;;;;24.45;21.00;;;;;;;18.53;65.93;101206.56;10479493;28;20033;-76
2021/09/26 06:01:25;;;;;;;31.00;21.63;;;;;;;19.21;65.79;101312.78;10479983;28;20127;-74
2021/09/26 06:06:25;;;;;;;27.40;21.00;;;;;;;19.36;65.36;101295.75;10497881;28;20025;-75
2021/09/26 06:11:26;;;;;;;31.98;22.77;;;;;;;19.37;65.29;101304.81;10498321;28;20060;-75
2021/09/26 06:16:26;;;;;;;25.27;20.73;;;;;;;18.45;65.16;101125.50;10498886;28;20040;-74
2021/09/26 06:21:27;;;;;;;24.55;21.00;;;;;;;18.71;64.53;101154.25;10498135;28;20476;-75
2021/09/26 06:26:27;;;;;;;26.83;18.90;;;;;;;19.67;64.58;101279.84;10498702;28;20070;-75
2021/09/26 06:31:27;;;;;;;28.77;21.77;;;;;;;19.17;64.09;101233.88;10506292;28;20424;-74
2021/09/26 06:36:28;;;;;;;22.88;17.10;;;;;;;18.72;64.67;101147.72;10471306;28;20087;-75
2021/09/26 06:41:28;;;;;;;33.35;20.75;;;;;;;19.70;64.32;101321.41;10505721;28;20032;-75
2021/09/26 06:46:29;;;;;;;33.35;21.25;;;;;;;19.55;65.03;101290.03;10470075;28;20441;-75
2021/09/26 06:51:31;;;;;;;30.50;19.75;;;;;;;20.02;64.29;101326.31;10487412;28;20032;-75
2021/09/26 06:56:32;;;;;;;25.92;19.70;;;;;;;20.59;62.79;101297.78;10487944;28;20032;-75
2021/09/26 07:01:32;;;;;;;29.90;20.00;;;;;;;20.79;62.80;101325.56;10488257;28;20052;-75
2021/09/26 07:06:33;;;;;;;27.58;20.65;;;;;;;20.13;63.43;101270.44;10505266;28;20068;-75
2021/09/26 07:11:33;;;;;;;34.88;21.05;;;;;;;20.47;63.73;101330.88;10470905;28;20067;-75
2021/09/26 07:16:34;;;;;;;30.58;22.88;;;;;;;20.44;63.69;101314.88;10486574;28;20063;-75
2021/09/26 07:21:34;;;;;;;21.70;19.35;;;;;;;21.87;61.89;101343.28;10486210;28;20142;-75
2021/09/26 07:26:34;;;;;;;21.42;17.42;;;;;;;22.47;60.80;101293.28;10486556;28;20043;-76
2021/09/26 07:31:35;;;;;;;21.73;16.63;;;;;;;22.44;58.39;101174.31;10504395;28;20048;-76
2021/09/26 07:36:35;;;;;;;21.65;18.30;;;;;;;24.46;56.89;101326.03;10485899;28;20028;-76
2021/09/26 07:41:36;;;;;;;21.13;17.33;;;;;;;24.26;56.84;101321.34;10502286;28;20028;-75
2021/09/26 07:46:36;;;;;;;21.33;17.13;;;;;;;24.67;56.47;101332.34;10435913;28;20092;-77
2021/09/26 07:51:36;;;;;;;20.88;15.38;;;;;;;23.87;56.79;101321.09;10503352;28;20037;-79
2021/09/26 07:56:37;;;;;;;22.00;17.65;;;;;;;23.75;57.77;101362.00;10503122;28;20037;-75
2021/09/26 08:01:37;;;;;;;24.63;17.88;;;;;;;23.48;58.06;101378.78;10485403;28;20558;-77
2021/09/26 08:06:38;;;;;;;22.85;17.50;;;;;;;24.53;57.24;101370.03;10503868;28;20048;-78
2021/09/26 08:11:38;;;;;;;23.92;18.25;;;;;;;24.27;55.91;101350.66;10485383;28;20044;-77
2021/09/26 08:16:38;;;;;;;26.75;17.63;;;;;;;23.82;57.16;101359.81;10501864;28;20484;-79
2021/09/26 08:21:39;;;;;;;24.50;17.92;;;;;;;23.98;57.36;101367.00;10485327;28;20044;-79
2021/09/26 08:26:39;;;;;;;23.63;16.88;;;;;;;24.33;57.12;101376.41;10484967;28;20025;-80
2021/09/26 08:31:40;;;;;;;17.25;15.32;;;;;;;24.41;56.48;101334.38;10501734;28;20051;-80
2021/09/26 08:36:40;;;;;;;23.77;18.30;;;;;;;24.63;56.90;101375.53;10501636;28;20373;-78
2021/09/26 08:41:41;;;;;;;23.70;17.60;;;;;;;24.17;56.79;101314.69;10501327;28;20041;-78
2021/09/26 08:46:42;;;;;;;20.83;17.15;;;;;;;23.16;56.57;101189.97;10466489;28;20413;-78
2021/09/26 08:51:45;;;;;;;22.08;14.95;;;;;;;23.36;56.78;101207.69;10501210;28;20039;-78
2021/09/26 08:56:45;;;;;;;24.48;18.20;;;;;;;24.11;56.73;101346.25;10500968;28;20028;-78
2021/09/26 09:01:46;;;;;;;18.10;16.05;;;;;;;24.13;55.93;101344.03;10500754;28;20036;-78
2021/09/26 09:06:47;;;;;;;21.45;18.17;;;;;;;23.81;56.72;101314.72;10481922;28;20128;-78
2021/09/26 09:12:04;;;;;;;28.90;17.65;;;;;;;23.85;57.97;101346.25;10499144;28;20067;-78
2021/09/26 09:17:04;;;;;;;21.40;18.00;;;;;;;24.25;57.57;101391.66;10481017;28;20025;-78
2021/09/26 09:22:06;;;;;;;26.08;16.25;;;;;;;24.30;57.58;101399.09;10498678;28;20068;-77
2021/09/26 09:27:07;;;;;;;19.80;15.57;;;;;;;23.90;56.62;101321.38;10480846;28;20029;-77
2021/09/26 09:32:17;;;;;;;18.17;16.27;;;;;;;23.04;57.52;101116.75;10447514;28;20040;-76
2021/09/26 09:37:23;;;;;;;21.10;16.17;;;;;;;24.86;56.45;101376.06;10464102;28;20101;-78
2021/09/26 09:42:23;;;;;;;19.20;15.77;;;;;;;24.11;55.34;101253.00;10497749;28;20115;-79
2021/09/26 09:47:23;;;;;;;24.38;16.92;;;;;;;24.63;54.31;101278.63;10480886;28;20489;-77
2021/09/26 09:52:41;;;;;;;22.23;15.38;;;;;;;26.06;55.45;101419.28;10480727;28;20040;-78
2021/09/26 09:57:41;;;;;;;22.42;16.45;;;;;;;26.87;51.91;101406.63;10464690;28;20032;-78
2021/09/26 10:02:42;;;;;;;23.02;16.48;;;;;;;26.03;52.35;101231.13;10480333;28;20114;-78
2021/09/26 10:07:42;;;;;;;19.63;15.55;;;;;;;27.87;51.32;101411.47;10481370;28;20036;-78
2021/09/26 10:12:43;;;;;;;15.75;13.63;;;;;;;28.78;48.77;101392.38;10480784;28;20063;-78
2021/09/26 10:17:43;;;;;;;14.55;13.05;;;;;;;27.03;47.29;101045.09;10462402;28;20040;-79
2021/09/26 10:22:45;;;;;;;16.65;13.43;;;;;;;28.40;47.77;101388.91;10498057;28;20067;-77
2021/09/26 10:27:46;;;;;;;19.42;12.45;;;;;;;29.57;46.72;101408.03;10478849;28;20052;-78
2021/09/26 10:32:46;;;;;;;19.58;15.13;;;;;;;29.76;46.69;101350.09;10470554;28;20032;-78
2021/09/26 10:37:46;;;;;;;15.30;13.18;;;;;;;29.11;44.85;101370.81;10463405;28;20056;-79
2021/09/26 10:42:47;;;;;;;20.77;14.13;;;;;;;29.51;43.91;101340.34;10480536;28;20093;-78
2021/09/26 10:47:51;;;;;;;28.30;13.18;;;;;;;30.59;43.43;101369.22;10479917;28;20028;-79
2021/09/26 10:52:53;;;;;;;16.27;13.73;;;;;;;30.96;41.44;101400.66;10498232;28;20033;-78
2021/09/26 10:57:53;;;;;;;18.48;12.75;;;;;;;30.57;40.81;101407.88;10463430;28;20024;-77
2021/09/26 11:02:53;;;;;;;16.17;12.45;;;;;;;29.48;38.95;101248.88;10498238;28;20505;-78
2021/09/26 11:07:54;;;;;;;20.70;13.90;;;;;;;28.63;39.65;101281.22;10478675;28;20459;-78
2021/09/26 11:13:09;;;;;;;21.13;12.48;;;;;;;29.81;40.28;101399.44;10462062;28;20056;-78
2021/09/26 11:18:09;;;;;;;21.00;12.35;;;;;;;29.77;40.78;101401.19;10469562;28;20205;-78
2021/09/26 11:23:18;;;;;;;18.90;12.60;;;;;;;30.35;41.45;101405.94;10503648;28;20029;-78
2021/09/26 11:28:29;;;;;;;12.63;11.32;;;;;;;30.58;39.57;101390.78;10503553;28;20028;-78
2021/09/26 11:33:52;;;;;;;13.15;10.40;;;;;;;29.83;39.27;101402.72;10503392;28;20555;-78
2021/09/26 11:38:52;;;;;;;13.13;9.85;;;;;;;29.81;38.86;101254.25;10469000;28;20048;-78
2021/09/26 11:44:03;;;;;;;15.98;11.60;;;;;;;29.94;40.18;101358.63;10503772;28;20047;-78
2021/09/26 11:49:05;;;;;;;16.23;11.48;;;;;;;30.02;39.28;101369.03;10502834;28;20036;-78
2021/09/26 11:54:06;;;;;;;13.27;11.20;;;;;;;30.21;40.09;101378.06;10503646;28;20480;-78
2021/09/26 11:59:11;;;;;;;17.10;12.20;;;;;;;30.23;38.96;101238.88;10485100;28;20060;-83
2021/09/26 12:04:22;;;;;;;13.60;12.05;;;;;;;31.36;38.05;101285.88;10484830;28;20073;-82
2021/09/26 12:09:33;;;;;;;12.23;10.23;;;;;;;31.38;37.28;101295.59;10503193;28;20068;-83
2021/09/26 12:14:33;;;;;;;13.27;10.48;;;;;;;31.92;36.21;101393.31;10501542;28;20099;-83
2021/09/26 12:19:34;;;;;;;10.23;9.00;;;;;;;29.30;38.38;101336.41;10502008;28;20412;-85
2021/09/26 12:24:53;;;;;;;10.15;9.20;;;;;;;28.76;40.43;101399.41;10501266;28;20033;-84
2021/09/26 12:29:57;;;;;;;11.02;9.23;;;;;;;28.39;41.10;101382.47;10501342;28;20502;-84
2021/09/26 12:34:58;;;;;;;16.58;9.00;;;;;;;26.96;42.08;101181.66;10501806;28;20036;-84
2021/09/26 12:40:03;;;;;;;11.88;8.98;;;;;;;28.09;42.21;101375.50;10502073;28;20098;-84
2021/09/26 12:45:20;;;;;;;16.42;11.43;;;;;;;28.23;42.76;101387.47;10483511;28;20028;-84
2021/09/26 12:50:22;;;;;;;13.70;10.52;;;;;;;28.40;42.26;101364.66;10483068;28;20037;-84
2021/09/26 12:55:27;;;;;;;13.70;11.68;;;;;;;29.54;40.16;101386.34;10482971;28;20033;-84
2021/09/26 13:00:37;;;;;;;11.95;10.70;;;;;;;29.43;40.05;101391.34;10482323;28;20123;-84
2021/09/26 13:05:38;;;;;;;14.98;11.82;;;;;;;29.54;40.55;101387.16;10500796;28;20377;-84
2021/09/26 13:10:41;;;;;;;12.40;10.63;;;;;;;29.86;40.61;101380.56;10465465;28;20048;-84
2021/09/26 13:15:44;;;;;;;14.48;11.25;;;;;;;29.79;40.01;101360.66;10465686;28;20032;-84
2021/09/26 13:20:45;;;;;;;12.80;11.40;;;;;;;29.77;40.84;101388.06;10482225;28;20035;-83
2021/09/26 13:25:45;;;;;;;15.80;12.02;;;;;;;29.18;41.21;101379.59;10499265;28;20032;-80
2021/09/26 13:30:48;;;;;;;13.02;11.05;;;;;;;28.91;41.69;101380.41;10481173;28;20472;-81
2021/09/26 13:35:49;;;;;;;12.73;11.50;;;;;;;28.32;42.62;101345.00;10480938;28;20053;-80
2021/09/26 13:40:59;;;;;;;14.25;10.88;;;;;;;27.98;42.35;101377.63;10480438;28;20053;-80
2021/09/26 13:46:00;;;;;;;14.80;12.30;;;;;;;27.51;43.59;101406.41;10481895;28;20033;-82
2021/09/26 13:51:01;;;;;;;19.83;15.02;;;;;;;27.28;44.03;101377.50;10464524;28;20480;-83
2021/09/26 13:56:01;;;;;;;14.00;12.30;;;;;;;27.61;44.21;101358.16;10499061;28;20466;-82
2021/09/26 14:01:02;;;;;;;11.25;9.77;;;;;;;29.00;42.59;101382.47;10463953;28;20076;-79
2021/09/26 14:06:03;;;;;;;14.35;12.10;;;;;;;28.34;40.84;101226.59;10497179;28;20028;-80
2021/09/26 14:11:03;;;;;;;10.35;9.02;;;;;;;28.57;40.66;101257.38;10499054;28;20511;-79
2021/09/26 14:16:05;;;;;;;10.68;8.30;;;;;;;29.12;40.61;101383.63;10479712;28;20055;-79
2021/09/26 14:21:05;;;;;;;9.77;8.88;;;;;;;28.83;41.10;101392.28;10479776;28;20033;-80
2021/09/26 14:26:06;;;;;;;11.80;9.60;;;;;;;28.94;40.83;101362.22;10497604;28;20086;-79
2021/09/26 14:31:08;;;;;;;8.75;8.00;;;;;;;28.04;40.34;101220.47;10498080;28;20495;-81
2021/09/26 14:36:09;;;;;;;11.88;10.68;;;;;;;27.58;40.93;101154.53;10479164;28;20032;-79
2021/09/26 14:41:11;;;;;;;12.05;10.77;;;;;;;28.17;42.06;101355.28;10497474;28;20044;-79
2021/09/26 14:46:15;;;;;;;12.65;9.52;;;;;;;28.80;41.99;101367.78;10479177;28;20037;-79
2021/09/26 14:51:16;;;;;;;16.65;9.90;;;;;;;29.22;41.75;101376.16;10503216;28;20037;-80
2021/09/26 14:56:19;;;;;;;14.80;10.30;;;;;;;28.64;42.14;101378.41;10486609;28;20036;-79
2021/09/26 15:01:19;;;;;;;16.92;8.95;;;;;;;27.40;42.50;101286.09;10504637;28;20044;-79
2021/09/26 15:06:20;;;;;;;13.23;10.95;;;;;;;27.43;44.01;101390.38;10486766;28;20047;-80
2021/09/26 15:11:20;;;;;;;14.38;11.10;;;;;;;26.44;45.67;101394.53;10486097;28;20063;-80
2021/09/26 15:16:20;;;;;;;14.13;10.85;;;;;;;26.13;46.59;101405.91;10504370;28;20032;-79
2021/09/26 15:21:21;;;;;;;11.98;9.85;;;;;;;25.90;47.16;101388.03;10470815;28;20395;-78
2021/09/26 15:26:22;;;;;;;15.30;10.48;;;;;;;25.89;47.44;101399.44;10504796;28;20500;-79
2021/09/26 15:31:23;;;;;;;13.82;9.27;;;;;;;25.89;47.14;101371.69;10506406;28;20041;-79
2021/09/26 15:36:23;;;;;;;11.35;8.98;;;;;;;25.87;47.55;101379.47;10504276;28;20086;-79
2021/09/26 15:41:24;;;;;;;12.98;9.13;;;;;;;24.77;46.90;101213.22;10502548;28;20083;-79
2021/09/26 15:46:25;;;;;;;9.20;7.88;;;;;;;23.78;49.85;101207.44;10503758;28;20056;-79
2021/09/26 15:51:27;;;;;;;12.32;9.23;;;;;;;24.48;49.78;101351.50;10485767;28;20480;-79
2021/09/26 15:56:28;;;;;;;8.27;7.50;;;;;;;24.93;49.79;101390.44;10503557;28;20044;-79
2021/09/26 16:01:29;;;;;;;13.48;9.40;;;;;;;24.88;49.57;101377.41;10502823;28;20392;-80
2021/09/26 16:06:30;;;;;;;16.00;8.13;;;;;;;24.97;49.29;101370.19;10484956;28;20428;-79
2021/09/26 16:11:30;;;;;;;9.05;8.18;;;;;;;24.37;49.57;101311.88;10486256;28;20036;-79
2021/09/26 16:16:31;;;;;;;9.73;7.72;;;;;;;24.72;49.43;101362.78;10500228;28;20056;-79
2021/09/26 16:21:31;;;;;;;8.57;7.53;;;;;;;24.30;50.06;101314.13;10502739;28;20067;-79
2021/09/26 16:26:32;;;;;;;14.90;8.65;;;;;;;24.47;50.19;101338.75;10484878;28;20048;-79
2021/09/26 16:31:33;;;;;;;8.05;6.60;;;;;;;24.03;49.79;101283.19;10485385;28;20447;-79
2021/09/26 16:36:33;;;;;;;9.18;8.27;;;;;;;24.31;50.10;101340.72;10483568;28;20032;-79
2021/09/26 16:41:34;;;;;;;6.82;6.28;;;;;;;24.25;50.39;101369.50;10501562;28;20048;-79
2021/09/26 16:46:34;;;;;;;8.02;6.50;;;;;;;24.47;50.32;101373.91;10501792;28;20055;-79
2021/09/26 16:51:35;;;;;;;9.15;6.55;;;;;;;23.29;50.09;101194.13;10501892;28;20074;-79
2021/09/26 16:56:35;;;;;;;6.43;5.88;;;;;;;24.48;50.04;101384.72;10500329;28;20037;-79
2021/09/26 17:01:36;;;;;;;6.32;5.72;;;;;;;24.46;50.01;101369.50;10482669;28;20036;-80
2021/09/26 17:06:37;;;;;;;10.30;6.22;;;;;;;24.33;49.74;101374.47;10482507;28;20097;-79
2021/09/26 17:11:37;;;;;;;8.23;6.75;;;;;;;23.34;50.57;101237.53;10500980;28;20032;-79
2021/09/26 17:16:38;;;;;;;7.65;6.88;;;;;;;24.01;50.57;101362.84;10498964;28;20037;-80
2021/09/26 17:21:38;;;;;;;9.73;7.88;;;;;;;23.19;51.21;101266.78;10500700;28;20040;-79
2021/09/26 17:26:39;;;;;;;6.80;5.95;;;;;;;23.58;51.06;101363.06;10466219;28;20052;-79
2021/09/26 17:31:40;;;;;;;8.52;5.95;;;;;;;23.03;53.68;101341.59;10502317;28;20058;-79
2021/09/26 17:36:40;;;;;;;10.45;6.93;;;;;;;23.42;53.34;101431.31;10500253;28;20396;-79
2021/09/26 17:41:41;;;;;;;8.43;6.57;;;;;;;23.26;53.91;101404.72;10499452;28;20438;-80
2021/09/26 17:46:41;;;;;;;8.95;6.93;;;;;;;22.96;53.29;101400.69;10499253;28;20373;-79
2021/09/26 17:51:43;;;;;;;6.45;5.78;;;;;;;23.33;53.26;101402.53;10499663;28;20067;-79
2021/09/26 17:56:43;;;;;;;10.38;6.93;;;;;;;22.44;54.22;101280.03;10464607;28;20432;-79
2021/09/26 18:01:43;;;;;;;5.93;5.32;;;;;;;23.28;53.96;101418.25;10498541;28;20033;-79
2021/09/26 18:06:44;;;;;;;6.53;5.93;;;;;;;23.16;54.17;101412.94;10498208;28;20102;-79
2021/09/26 18:11:44;;;;;;;7.10;6.38;;;;;;;21.22;53.71;101105.44;10498879;28;20036;-80
2021/09/26 18:16:45;;;;;;;8.30;6.18;;;;;;;22.92;54.39;101412.53;10464542;28;20071;-79
2021/09/26 18:21:47;;;;;;;13.80;5.72;;;;;;;22.97;55.68;101409.78;10499527;28;20384;-79
2021/09/26 18:26:47;;;;;;;9.48;5.88;;;;;;;23.06;55.85;101421.19;10506219;28;20028;-79
2021/09/26 18:31:47;;;;;;;9.00;6.32;;;;;;;22.86;55.98;101428.22;10506340;28;20403;-79
2021/09/26 18:36:50;;;;;;;6.47;5.82;;;;;;;22.34;56.43;101346.19;10506789;28;20097;-80
2021/09/26 18:41:50;;;;;;;8.25;7.30;;;;;;;21.56;56.86;101236.34;10506182;28;20439;-79
2021/09/26 18:46:50;;;;;;;7.50;6.65;;;;;;;22.68;56.95;101445.22;10504087;28;20125;-79
2021/09/26 18:51:51;;;;;;;8.05;7.25;;;;;;;21.89;56.44;101339.19;10506639;28;20036;-79
2021/09/26 18:56:51;;;;;;;7.80;7.03;;;;;;;22.03;56.97;101395.56;10487440;28;20064;-79
2021/09/26 19:01:52;;;;;;;9.52;7.80;;;;;;;22.28;57.01;101452.91;10487576;28;20123;-80
2021/09/26 19:06:52;;;;;;;12.75;8.38;;;;;;;22.01;57.63;101436.34;10505020;28;20396;-79
2021/09/26 19:11:52;;;;;;;11.07;9.40;;;;;;;21.78;58.05;101417.38;10487122;28;20040;-79
2021/09/26 19:16:53;;;;;;;22.35;10.52;;;;;;;22.01;57.98;101466.69;10504571;28;20033;-79
2021/09/26 19:21:56;;;;;;;13.65;11.02;;;;;;;20.80;57.39;101293.34;10504368;28;20044;-79
2021/09/26 19:26:57;;;;;;;11.90;10.75;;;;;;;21.69;57.74;101460.28;10470294;28;20028;-79
2021/09/26 19:31:57;;;;;;;12.73;11.25;;;;;;;21.75;58.42;101462.00;10486139;28;20028;-79
2021/09/26 19:36:58;;;;;;;14.23;10.95;;;;;;;21.35;58.36;101425.44;10502436;28;20060;-79
2021/09/26 19:41:58;;;;;;;13.68;10.65;;;;;;;21.51;58.62;101467.78;10469603;28;20036;-78
2021/09/26 19:46:58;;;;;;;14.40;12.48;;;;;;;21.11;59.08;101430.31;10485744;28;20071;-78
2021/09/26 19:51:59;;;;;;;15.38;10.98;;;;;;;21.31;58.81;101473.00;10485808;28;20113;-80
2021/09/26 19:56:59;;;;;;;11.35;10.25;;;;;;;20.19;58.00;101305.13;10485416;28;20064;-79
2021/09/26 20:02:00;;;;;;;13.75;11.30;;;;;;;21.11;58.59;101470.81;10484864;28;20047;-79
2021/09/26 20:07:00;;;;;;;10.82;9.45;;;;;;;21.08;59.91;101468.56;10503154;28;20040;-78
2021/09/26 20:12:00;;;;;;;11.93;10.65;;;;;;;19.82;59.89;101271.03;10484753;28;20086;-79
2021/09/26 20:17:01;;;;;;;13.32;9.68;;;;;;;20.75;60.52;101422.66;10501531;28;20459;-78
2021/09/26 20:22:02;;;;;;;11.77;10.20;;;;;;;20.97;60.58;101451.06;10484178;28;20037;-79
2021/09/26 20:27:02;;;;;;;15.80;9.80;;;;;;;20.92;59.86;101450.16;10467345;28;20033;-78
2021/09/26 20:32:03;;;;;;;16.75;10.10;;;;;;;20.29;60.24;101372.38;10502077;28;20492;-79
2021/09/26 20:37:03;;;;;;;11.30;9.10;;;;;;;20.66;59.98;101420.31;10482401;28;20048;-79
2021/09/26 20:42:04;;;;;;;16.08;9.75;;;;;;;19.70;60.47;101266.44;10501674;28;20319;-80
2021/09/26 20:47:04;;;;;;;20.27;11.38;;;;;;;20.38;59.88;101412.16;10500245;28;20028;-79
2021/09/26 20:52:05;;;;;;;10.60;9.30;;;;;;;19.49;60.48;101272.63;10499957;28;20500;-78
2021/09/26 20:57:05;;;;;;;13.30;10.98;;;;;;;20.36;60.55;101386.81;10499870;28;20037;-78
2021/09/26 21:02:06;;;;;;;13.85;9.45;;;;;;;20.61;60.94;101434.03;10484569;28;20055;-79
2021/09/26 21:07:06;;;;;;;11.25;9.30;;;;;;;17.57;60.47;100932.19;10501739;28;20036;-79
2021/09/26 21:12:07;;;;;;;16.83;11.25;;;;;;;20.23;60.60;101371.50;10482486;28;20473;-79
2021/09/26 21:17:11;;;;;;;10.70;9.60;;;;;;;18.95;61.11;101157.75;10482424;28;20076;-78
2021/09/26 21:22:12;;;;;;;16.23;10.40;;;;;;;20.33;60.29;101354.31;10498532;28;20064;-78
2021/09/26 21:27:14;;;;;;;15.13;10.43;;;;;;;20.60;61.00;101417.75;10481924;28;20111;-78
2021/09/26 21:32:14;;;;;;;14.70;10.77;;;;;;;20.39;61.08;101403.66;10500113;28;20495;-78
2021/09/26 21:37:15;;;;;;;13.15;9.88;;;;;;;19.51;60.75;101265.81;10500031;28;20044;-79
2021/09/26 21:42:15;;;;;;;15.20;9.63;;;;;;;17.18;61.45;100916.34;10500820;28;20059;-78
2021/09/26 21:47:15;;;;;;;14.15;12.23;;;;;;;20.17;62.33;101411.00;10481222;28;20036;-78
2021/09/26 21:52:16;;;;;;;14.07;11.20;;;;;;;20.20;62.24;101410.50;10498425;28;20119;-78
2021/09/26 21:57:16;;;;;;;17.38;10.55;;;;;;;20.04;62.97;101420.41;10480144;28;20025;-78
2021/09/26 22:02:17;;;;;;;18.60;13.20;;;;;;;19.94;63.98;101388.06;10480879;28;20068;-78
2021/09/26 22:07:17;;;;;;;20.08;12.75;;;;;;;20.19;63.04;101412.38;10480817;28;20119;-77
2021/09/26 22:12:17;;;;;;;13.35;12.05;;;;;;;20.13;63.47;101405.16;10480809;28;20069;-78
2021/09/26 22:17:18;;;;;;;14.40;12.90;;;;;;;20.03;63.87;101412.38;10497661;28;20048;-78
2021/09/26 22:22:18;;;;;;;15.93;11.60;;;;;;;19.97;63.74;101389.47;10480543;28;20541;-78
2021/09/26 22:27:19;;;;;;;16.33;13.45;;;;;;;19.20;63.66;101283.63;10480275;28;20041;-79
2021/09/26 22:32:19;;;;;;;18.13;13.82;;;;;;;20.07;63.39;101400.66;10498258;28;20083;-80
2021/09/26 22:37:20;;;;;;;14.50;11.98;;;;;;;19.93;63.40;101397.38;10498792;28;20059;-78
2021/09/26 22:42:23;;;;;;;18.77;13.45;;;;;;;19.63;62.77;101350.09;10479725;28;20064;-78